To NAV CANADA Home Page Login to a new session Search on AWWS site Feedback and Comments Disclaimer Vers la page française équivalente Tips FAQ What's new on the site To the Forecasts and Observations / NOTAM section To "File a Flight Plan" website Publications and other links Update of the User's profile FIC Telephone Numbers My Weather Data Folder Route Weather Data Regional Weather Data Local Weather Data To the Forecasts and Observations / NOTAM section
Request Generated 04/30/2017 at 05:00:12 UTC . Weather information available at that time is displayed.

METAR/TAF

EUREKA/NU    

LWIS CWEU 300400Z AUTO 08002KT M23/M26 A3012=
METAR CWEU 300300Z 14005KT 6SM -SN SCT026 SCT035 OVC080 M22/M25 A3013
RMK SC3SC1AS5 SC TR LAST OBS/NEXT 300600 UTC SLP205=
METAR CWEU 300200Z 14005KT 8SM -SN SCT026 BKN080 M22/M25 A3014 RMK
SC3AS4 SLP210=

*** REMARK        : Forecast period has ended; this was the last TAF issued
*** REMARQUE : La période de prévision est échue; ceci était le dernier TAF qui a été émis
TAF AMD CYEU 300051Z 3000/3002 ADVISORY OFFSITE VRB03KT 5SM -SN
SCT015 BKN030 TEMPO 3000/3002 11/2SM -SN BKN015
RMK NXT FCST WILL BE ISSUED AT 301045Z=
Your time UTC time
Weather data provided by Environment Canada and NAV CANADA